Time;durP1;ratioP1;P1;durP2;ratioP2;P2;SDS_P1;SDS_P2;PMS_P1;PMS_P2;Temp;Humidity;BMP_temperature;BMP_pressure;BME280_temperature;BME280_humidity;BME280_pressure;Samples;Min_cycle;Max_cycle;Signal;HPM_P1;HPM_P2
2022/10/09 00:01:35;;;;;;;8.32;3.50;;;10.40;77.80;;;;;;4939162;28;20062;-79
2022/10/09 00:04:04;;;;;;;8.93;3.03;;;10.30;77.80;;;;;;4940413;28;20131;-80
2022/10/09 00:06:33;;;;;;;12.43;3.40;;;10.30;77.90;;;;;;4955701;28;20414;-80
2022/10/09 00:09:01;;;;;;;7.40;3.20;;;10.30;78.00;;;;;;4973285;28;20570;-80
2022/10/09 00:11:30;;;;;;;7.95;3.08;;;10.30;78.00;;;;;;4955762;28;20780;-80
2022/10/09 00:13:58;;;;;;;8.25;3.28;;;10.20;77.90;;;;;;4971961;28;20051;-80
2022/10/09 00:16:26;;;;;;;12.32;3.63;;;10.20;78.10;;;;;;4956308;28;20058;-80
2022/10/09 00:18:54;;;;;;;7.70;3.07;;;10.10;78.10;;;;;;4986806;28;20093;-79
2022/10/09 00:21:23;;;;;;;7.65;3.03;;;10.10;78.10;;;;;;4968330;28;20262;-80
2022/10/09 00:23:51;;;;;;;9.77;3.13;;;10.10;78.10;;;;;;5004289;28;20051;-80
2022/10/09 00:26:18;;;;;;;7.63;3.10;;;10.00;78.10;;;;;;5003969;28;20055;-80
2022/10/09 00:28:45;;;;;;;7.80;3.03;;;10.00;78.20;;;;;;4971637;28;20586;-80
2022/10/09 00:31:15;;;;;;;10.50;2.73;;;10.00;78.30;;;;;;4954816;28;20058;-79
2022/10/09 00:33:42;;;;;;;10.50;3.10;;;10.00;78.30;;;;;;4971105;28;20254;-79
2022/10/09 00:36:10;;;;;;;8.60;3.35;;;10.00;78.30;;;;;;4936971;28;20052;-79
2022/10/09 00:38:37;;;;;;;12.48;3.72;;;10.00;78.40;;;;;;4953306;28;20549;-80
2022/10/09 00:41:05;;;;;;;8.75;3.00;;;9.90;78.40;;;;;;4953240;28;20051;-80
2022/10/09 00:43:47;;;;;;;9.20;3.20;;;9.80;78.50;;;;;;4971196;28;20154;-79
2022/10/09 00:46:26;;;;;;;7.65;3.33;;;9.80;78.60;;;;;;4969913;28;20283;-80
2022/10/09 00:48:59;;;;;;;9.82;3.70;;;9.80;78.60;;;;;;4969421;28;20661;-80
2022/10/09 00:51:28;;;;;;;8.10;2.97;;;9.80;78.70;;;;;;4938474;28;20055;-79
2022/10/09 00:53:55;;;;;;;9.85;3.33;;;9.80;78.60;;;;;;4955184;28;20058;-79
2022/10/09 00:56:22;;;;;;;7.33;3.30;;;9.70;78.70;;;;;;4972322;28;20051;-79
2022/10/09 00:58:54;;;;;;;7.40;2.88;;;9.70;78.70;;;;;;5003529;28;20252;-80
2022/10/09 01:01:22;;;;;;;10.65;3.60;;;9.70;78.80;;;;;;4954900;28;20066;-79
2022/10/09 01:03:49;;;;;;;8.85;3.42;;;9.70;78.70;;;;;;4955310;28;20086;-80
2022/10/09 01:06:20;;;;;;;7.95;3.67;;;9.60;78.70;;;;;;4955125;28;20059;-80
2022/10/09 01:08:53;;;;;;;11.30;3.57;;;9.60;78.80;;;;;;4953488;28;20055;-80
2022/10/09 01:11:33;;;;;;;8.82;3.33;;;9.60;78.80;;;;;;4971346;28;21067;-79
2022/10/09 01:14:08;;;;;;;8.88;3.10;;;9.60;78.70;;;;;;4970876;28;20079;-79
2022/10/09 01:16:41;;;;;;;9.13;3.17;;;9.60;78.60;;;;;;4972667;28;20145;-79
2022/10/09 01:19:22;;;;;;;7.55;2.67;;;9.60;78.40;;;;;;4954990;28;20134;-79
2022/10/09 01:21:57;;;;;;;7.33;2.30;;;9.60;78.30;;;;;;4971096;28;20059;-80
2022/10/09 01:24:32;;;;;;;5.95;2.78;;;9.60;78.10;;;;;;4971007;28;20256;-80
2022/10/09 01:27:11;;;;;;;6.22;3.05;;;9.60;78.00;;;;;;4969636;28;20079;-79
2022/10/09 01:29:44;;;;;;;6.40;2.88;;;9.60;77.90;;;;;;4961637;28;20125;-80
2022/10/09 01:32:14;;;;;;;6.70;3.40;;;9.60;77.90;;;;;;5003661;28;20378;-80
2022/10/09 01:34:44;;;;;;;10.37;3.20;;;9.60;77.90;;;;;;4986722;28;20597;-79
2022/10/09 01:37:12;;;;;;;8.48;3.30;;;9.60;78.00;;;;;;4970909;28;20757;-80
2022/10/09 01:39:41;;;;;;;9.07;3.50;;;9.50;78.00;;;;;;5002957;28;20372;-79
2022/10/09 01:42:11;;;;;;;7.40;3.28;;;9.50;78.00;;;;;;4972077;28;20146;-79
2022/10/09 01:44:38;;;;;;;7.43;3.58;;;9.50;78.10;;;;;;4955855;28;20051;-80
2022/10/09 01:47:05;;;;;;;9.20;3.37;;;9.50;78.10;;;;;;4954295;28;20206;-79
2022/10/09 01:49:41;;;;;;;8.52;3.05;;;9.50;78.10;;;;;;4965883;28;20243;-80
2022/10/09 01:52:18;;;;;;;6.00;2.78;;;9.50;78.10;;;;;;4987463;28;20062;-80
2022/10/09 01:55:01;;;;;;;6.40;2.80;;;9.50;77.90;;;;;;4971942;28;20493;-79
2022/10/09 01:57:35;;;;;;;5.47;2.53;;;9.50;77.80;;;;;;5003136;28;20051;-79
2022/10/09 02:00:06;;;;;;;18.43;3.07;;;9.50;77.80;;;;;;5001002;28;20059;-80
2022/10/09 02:02:39;;;;;;;6.38;2.60;;;9.50;77.60;;;;;;4954580;28;20279;-79
2022/10/09 02:05:08;;;;;;;5.13;2.30;;;9.50;77.50;;;;;;4954154;28;20043;-80
2022/10/09 02:07:36;;;;;;;8.32;3.38;;;9.50;77.40;;;;;;4972189;28;20055;-80
2022/10/09 02:10:05;;;;;;;8.45;3.72;;;9.50;77.30;;;;;;4954154;28;20524;-80
2022/10/09 02:12:37;;;;;;;6.50;2.60;;;9.50;77.40;;;;;;4970178;28;20524;-80
2022/10/09 02:15:05;;;;;;;5.25;2.20;;;9.40;77.40;;;;;;4953207;28;20260;-79
2022/10/09 02:17:37;;;;;;;4.75;2.40;;;9.40;77.20;;;;;;4967874;28;20047;-80
2022/10/09 02:20:09;;;;;;;5.32;2.20;;;9.40;77.20;;;;;;4972007;28;20134;-80
2022/10/09 02:22:36;;;;;;;5.72;2.65;;;9.40;77.10;;;;;;4954897;28;20079;-80
2022/10/09 02:25:06;;;;;;;7.53;2.70;;;9.40;77.00;;;;;;4970029;28;20503;-79
2022/10/09 02:27:35;;;;;;;6.38;2.60;;;9.40;77.00;;;;;;4969860;28;20450;-79
2022/10/09 02:30:04;;;;;;;9.30;2.92;;;9.40;76.90;;;;;;5002280;28;20061;-80
2022/10/09 02:32:30;;;;;;;7.28;3.13;;;9.40;76.80;;;;;;5002532;28;20057;-80
2022/10/09 02:34:57;;;;;;;9.10;3.63;;;9.40;76.80;;;;;;4966562;28;20475;-80
2022/10/09 02:37:24;;;;;;;9.07;3.67;;;9.40;76.90;;;;;;4953646;28;20055;-80
2022/10/09 02:39:51;;;;;;;6.03;2.83;;;9.30;77.00;;;;;;4970026;28;20286;-79
2022/10/09 02:42:18;;;;;;;8.98;3.58;;;9.30;77.00;;;;;;4970187;28;20494;-80
2022/10/09 02:44:46;;;;;;;6.05;2.85;;;9.30;76.90;;;;;;4970113;28;20530;-80
2022/10/09 02:47:13;;;;;;;5.18;2.35;;;9.20;77.00;;;;;;4969728;28;20082;-79
2022/10/09 02:49:40;;;;;;;6.67;2.30;;;9.20;76.80;;;;;;4969662;28;20154;-80
2022/10/09 02:52:07;;;;;;;4.40;2.05;;;9.20;76.70;;;;;;4952099;28;20264;-80
2022/10/09 02:54:34;;;;;;;6.10;2.90;;;9.20;76.70;;;;;;4953531;28;20055;-80
2022/10/09 02:57:01;;;;;;;8.32;2.92;;;9.20;76.70;;;;;;4953346;28;20051;-79
2022/10/09 02:59:28;;;;;;;6.85;2.67;;;9.10;76.80;;;;;;4969035;28;20126;-79
2022/10/09 03:01:56;;;;;;;6.30;2.80;;;9.10;76.90;;;;;;4937921;28;20082;-80
2022/10/09 03:04:23;;;;;;;5.05;2.28;;;9.10;76.90;;;;;;4972550;28;20342;-79
2022/10/09 03:06:50;;;;;;;7.07;2.75;;;9.00;76.80;;;;;;4956549;28;20061;-80
2022/10/09 03:09:17;;;;;;;5.43;3.00;;;9.00;76.90;;;;;;4955047;28;20051;-80
2022/10/09 03:11:44;;;;;;;5.40;2.70;;;9.00;76.80;;;;;;4972941;28;20130;-79
2022/10/09 03:14:11;;;;;;;4.50;2.53;;;9.00;76.70;;;;;;4956362;28;20052;-79
2022/10/09 03:16:37;;;;;;;6.15;3.05;;;9.00;76.70;;;;;;4956084;28;20838;-80
2022/10/09 03:19:06;;;;;;;7.20;2.80;;;9.00;76.70;;;;;;4956717;28;20059;-79
2022/10/09 03:21:33;;;;;;;6.75;2.42;;;9.00;76.60;;;;;;4972839;28;20675;-79
2022/10/09 03:24:00;;;;;;;7.10;2.92;;;9.00;76.60;;;;;;4956354;28;20255;-80
2022/10/09 03:26:28;;;;;;;7.00;2.60;;;9.00;76.60;;;;;;4970524;28;20119;-80
2022/10/09 03:28:55;;;;;;;6.50;2.83;;;9.00;76.60;;;;;;4956194;28;20247;-79
2022/10/09 03:31:25;;;;;;;7.45;2.80;;;9.00;76.60;;;;;;4972167;28;20082;-79
2022/10/09 03:33:53;;;;;;;8.05;2.92;;;9.00;76.50;;;;;;4974071;28;20484;-79
2022/10/09 03:36:21;;;;;;;5.57;2.72;;;9.00;76.40;;;;;;4972316;28;20533;-79
2022/10/09 03:38:48;;;;;;;7.83;2.87;;;9.00;76.30;;;;;;4956397;28;20061;-79
2022/10/09 03:41:14;;;;;;;5.72;2.80;;;9.00;76.40;;;;;;4972060;28;20374;-80
2022/10/09 03:43:41;;;;;;;6.32;2.78;;;9.00;76.30;;;;;;4972310;28;20050;-79
2022/10/09 03:46:09;;;;;;;5.93;3.05;;;9.00;76.40;;;;;;4956200;28;20418;-79
2022/10/09 03:48:36;;;;;;;6.90;2.88;;;9.00;76.40;;;;;;5005312;28;20605;-79
2022/10/09 03:51:03;;;;;;;4.73;2.40;;;9.00;76.40;;;;;;4972312;28;20051;-79
2022/10/09 03:53:31;;;;;;;3.80;1.90;;;9.00;76.50;;;;;;4973637;28;20289;-80
2022/10/09 03:55:58;;;;;;;4.47;1.83;;;8.90;76.50;;;;;;4972503;28;20051;-79
2022/10/09 03:58:25;;;;;;;3.50;1.77;;;8.90;76.40;;;;;;4971565;28;20520;-79
2022/10/09 04:00:52;;;;;;;4.75;1.90;;;8.90;76.40;;;;;;4987088;28;20062;-80
2022/10/09 04:03:20;;;;;;;4.43;1.93;;;8.90;76.20;;;;;;4973785;28;20055;-80
2022/10/09 04:05:47;;;;;;;3.70;1.55;;;8.90;76.20;;;;;;4955865;28;20283;-79
2022/10/09 04:08:14;;;;;;;4.07;1.33;;;8.90;76.30;;;;;;4971983;28;20912;-80
2022/10/09 04:10:42;;;;;;;3.00;1.35;;;8.80;76.20;;;;;;4955777;28;20057;-79
2022/10/09 04:13:09;;;;;;;4.35;1.70;;;8.80;76.00;;;;;;4972020;28;20114;-79
2022/10/09 04:15:36;;;;;;;3.90;1.67;;;8.70;75.70;;;;;;4955804;28;20055;-80
2022/10/09 04:18:03;;;;;;;3.78;1.70;;;8.60;75.80;;;;;;4954744;28;20303;-80
2022/10/09 04:20:30;;;;;;;3.20;1.35;;;8.60;75.90;;;;;;4972030;28;20057;-80
2022/10/09 04:22:57;;;;;;;3.55;1.30;;;8.60;76.00;;;;;;4973453;28;20075;-79
2022/10/09 04:25:24;;;;;;;4.93;1.77;;;8.60;75.70;;;;;;5004290;28;20055;-79
2022/10/09 04:27:52;;;;;;;4.60;1.60;;;8.50;75.70;;;;;;4973521;28;20055;-80
2022/10/09 04:30:19;;;;;;;3.15;1.30;;;8.40;75.90;;;;;;4972929;28;20272;-79
2022/10/09 04:32:47;;;;;;;3.45;1.58;;;8.40;75.90;;;;;;4971810;28;20058;-79
2022/10/09 04:35:15;;;;;;;4.85;2.22;;;8.40;75.90;;;;;;4970285;28;20118;-80
2022/10/09 04:37:42;;;;;;;4.82;2.10;;;8.50;75.80;;;;;;4973335;28;20062;-79
2022/10/09 04:40:09;;;;;;;5.93;1.87;;;8.50;75.70;;;;;;4955049;28;20086;-79
2022/10/09 04:42:36;;;;;;;5.68;1.55;;;8.50;75.60;;;;;;4973144;28;20314;-79
2022/10/09 04:45:05;;;;;;;5.32;1.60;;;8.50;75.50;;;;;;4971746;28;20484;-79
2022/10/09 04:47:33;;;;;;;4.57;1.60;;;8.40;75.50;;;;;;4987710;28;20073;-79
2022/10/09 04:50:01;;;;;;;4.00;1.50;;;8.50;75.40;;;;;;5004121;28;20055;-79
2022/10/09 04:52:28;;;;;;;4.10;1.50;;;8.50;75.30;;;;;;4969606;28;20487;-79
2022/10/09 04:54:55;;;;;;;4.05;1.42;;;8.50;75.30;;;;;;4955050;28;20289;-79
2022/10/09 04:57:22;;;;;;;3.95;1.50;;;8.50;75.10;;;;;;4939452;28;20110;-79
2022/10/09 04:59:49;;;;;;;3.95;1.70;;;8.40;75.10;;;;;;4954893;28;20058;-79
2022/10/09 05:02:17;;;;;;;3.90;1.85;;;8.40;75.00;;;;;;4955245;28;20043;-79
2022/10/09 05:04:46;;;;;;;4.00;1.60;;;8.40;75.00;;;;;;4955205;28;20493;-79
2022/10/09 05:07:13;;;;;;;4.38;1.92;;;8.40;75.10;;;;;;4971014;28;20792;-79
2022/10/09 05:09:39;;;;;;;5.38;1.95;;;8.40;75.20;;;;;;4967726;28;20167;-79
2022/10/09 05:12:06;;;;;;;4.60;1.90;;;8.30;75.20;;;;;;4954768;28;20122;-80
2022/10/09 05:14:33;;;;;;;4.68;2.10;;;8.30;75.10;;;;;;4972608;28;20044;-79
2022/10/09 05:17:04;;;;;;;5.13;2.10;;;8.30;74.90;;;;;;4938882;28;20057;-80
2022/10/09 05:19:32;;;;;;;4.50;1.80;;;8.20;75.10;;;;;;4954748;28;20275;-79
2022/10/09 05:22:00;;;;;;;4.32;1.60;;;8.20;75.20;;;;;;4939102;28;20054;-79
2022/10/09 05:24:27;;;;;;;4.30;1.80;;;8.20;75.20;;;;;;4954222;28;20484;-79
2022/10/09 05:26:54;;;;;;;3.50;1.63;;;8.10;75.10;;;;;;4954666;28;20125;-79
2022/10/09 05:29:21;;;;;;;3.97;1.70;;;8.10;75.20;;;;;;4953152;28;20055;-79
2022/10/09 05:31:48;;;;;;;3.58;1.35;;;8.10;75.40;;;;;;4970138;28;20244;-79
2022/10/09 05:34:16;;;;;;;3.40;1.70;;;8.00;75.30;;;;;;4954183;28;20508;-79
2022/10/09 05:36:44;;;;;;;4.22;1.92;;;8.00;75.20;;;;;;4954171;28;20138;-79
2022/10/09 05:39:11;;;;;;;3.97;1.83;;;8.00;75.40;;;;;;4971805;28;20059;-79
2022/10/09 05:41:37;;;;;;;4.33;2.00;;;8.00;75.50;;;;;;4987290;28;20213;-79
2022/10/09 05:44:04;;;;;;;3.92;1.80;;;8.00;75.50;;;;;;4954082;28;20365;-79
2022/10/09 05:46:31;;;;;;;4.43;2.17;;;7.90;75.20;;;;;;4952659;28;20078;-79
2022/10/09 05:49:00;;;;;;;3.72;1.80;;;7.90;75.30;;;;;;4953646;28;20058;-78
2022/10/09 05:51:29;;;;;;;3.88;1.42;;;7.90;75.30;;;;;;4950202;28;20149;-80
2022/10/09 05:54:00;;;;;;;3.97;1.70;;;7.80;75.30;;;;;;4936658;28;20059;-78
2022/10/09 05:56:29;;;;;;;4.30;1.90;;;7.80;75.20;;;;;;4967539;28;20338;-79
2022/10/09 05:58:58;;;;;;;3.58;1.50;;;7.80;75.20;;;;;;4953346;28;20043;-80
2022/10/09 06:01:27;;;;;;;4.25;1.80;;;7.80;75.20;;;;;;4969686;28;20130;-81
2022/10/09 06:03:55;;;;;;;4.03;1.48;;;7.80;75.20;;;;;;4951291;28;20057;-79
2022/10/09 06:06:25;;;;;;;3.67;1.70;;;7.80;75.30;;;;;;4959473;28;20043;-79
2022/10/09 06:08:52;;;;;;;5.20;1.80;;;7.80;75.30;;;;;;4968382;28;20279;-80
2022/10/09 06:11:22;;;;;;;3.65;1.75;;;7.80;75.20;;;;;;4984422;28;20043;-80
2022/10/09 06:13:49;;;;;;;3.53;1.60;;;7.80;75.20;;;;;;4968162;28;20062;-80
2022/10/09 06:16:17;;;;;;;2.80;1.20;;;7.80;75.20;;;;;;4969781;28;20059;-80
2022/10/09 06:18:46;;;;;;;3.77;1.70;;;7.80;75.20;;;;;;4969513;28;20055;-76
2022/10/09 06:21:15;;;;;;;4.85;1.60;;;7.80;75.10;;;;;;4959209;28;20267;-77
2022/10/09 06:23:42;;;;;;;3.70;1.52;;;7.80;75.30;;;;;;4953818;28;20058;-77
2022/10/09 06:26:11;;;;;;;3.95;1.73;;;7.80;75.40;;;;;;4970383;28;20047;-79
2022/10/09 06:28:40;;;;;;;4.55;1.88;;;7.70;75.50;;;;;;4969647;28;20059;-78
2022/10/09 06:31:09;;;;;;;3.13;1.40;;;7.70;75.40;;;;;;4952395;28;20043;-78
2022/10/09 06:33:38;;;;;;;4.05;1.45;;;7.70;75.60;;;;;;4951996;28;20323;-77
2022/10/09 06:36:07;;;;;;;3.45;1.73;;;7.60;75.80;;;;;;4952955;28;20051;-76
2022/10/09 06:38:34;;;;;;;5.53;2.30;;;7.60;75.90;;;;;;4983854;28;20055;-77
2022/10/09 06:41:02;;;;;;;5.63;2.20;;;7.60;75.90;;;;;;4952247;28;20051;-77
2022/10/09 06:43:29;;;;;;;5.87;2.40;;;7.60;76.00;;;;;;4953262;28;20673;-76
2022/10/09 06:46:01;;;;;;;5.97;2.67;;;7.60;76.00;;;;;;4955471;28;20757;-74
2022/10/09 06:48:29;;;;;;;5.80;3.20;;;7.60;76.20;;;;;;4936846;28;20096;-80
2022/10/09 06:51:00;;;;;;;5.32;2.90;;;7.70;76.20;;;;;;4953128;28;20086;-81
2022/10/09 06:53:27;;;;;;;6.07;3.22;;;7.70;76.50;;;;;;4951964;28;20119;-77
2022/10/09 06:55:54;;;;;;;7.47;3.80;;;7.70;76.50;;;;;;4949805;28;20043;-76
2022/10/09 06:58:21;;;;;;;8.20;3.60;;;7.80;76.90;;;;;;4969138;28;20408;-77
2022/10/09 07:00:48;;;;;;;7.53;4.05;;;7.80;77.10;;;;;;4952349;28;20055;-77
2022/10/09 07:03:16;;;;;;;7.47;3.78;;;7.80;77.20;;;;;;4952028;28;20047;-78
2022/10/09 07:05:43;;;;;;;8.27;4.43;;;7.80;77.40;;;;;;4953123;28;20081;-80
2022/10/09 07:08:10;;;;;;;7.27;4.17;;;7.80;77.70;;;;;;4952280;28;20146;-78
2022/10/09 07:10:36;;;;;;;10.63;5.30;;;7.80;78.00;;;;;;4952375;28;20344;-78
2022/10/09 07:13:03;;;;;;;7.70;4.57;;;7.80;78.50;;;;;;4952449;28;20056;-78
2022/10/09 07:15:30;;;;;;;11.70;8.48;;;7.80;78.90;;;;;;4985456;28;20540;-78
2022/10/09 07:17:57;;;;;;;8.60;5.35;;;7.80;79.00;;;;;;4984157;28;20505;-78
2022/10/09 07:20:25;;;;;;;8.93;5.20;;;7.80;79.10;;;;;;4951341;28;20058;-79
2022/10/09 07:22:52;;;;;;;18.40;6.10;;;7.80;79.30;;;;;;4936057;28;20294;-78
2022/10/09 07:25:20;;;;;;;8.45;5.45;;;7.80;79.60;;;;;;4951901;28;20154;-79
2022/10/09 07:27:48;;;;;;;10.95;6.13;;;7.80;79.90;;;;;;4937272;28;20159;-79
2022/10/09 07:30:15;;;;;;;9.63;5.07;;;7.80;80.10;;;;;;4951244;28;20043;-78
2022/10/09 07:32:42;;;;;;;8.80;5.10;;;7.80;80.00;;;;;;4953422;28;20065;-78
2022/10/09 07:35:09;;;;;;;9.02;5.28;;;8.00;80.50;;;;;;4962159;28;20247;-78
2022/10/09 07:37:38;;;;;;;9.25;5.28;;;8.00;80.70;;;;;;5002182;28;20078;-79
2022/10/09 07:40:06;;;;;;;9.80;5.10;;;8.00;81.00;;;;;;4970318;28;20087;-79
2022/10/09 07:42:32;;;;;;;11.32;5.88;;;8.00;81.10;;;;;;4968869;28;20055;-79
2022/10/09 07:44:59;;;;;;;11.10;5.70;;;8.00;81.20;;;;;;4969251;28;20143;-79
2022/10/09 07:47:26;;;;;;;14.10;8.13;;;8.00;81.50;;;;;;4956096;28;20259;-79
2022/10/09 07:49:53;;;;;;;11.20;5.40;;;8.10;81.50;;;;;;4956048;28;20043;-79
2022/10/09 07:52:20;;;;;;;10.70;6.03;;;8.10;81.80;;;;;;4966462;28;20055;-79
2022/10/09 07:54:48;;;;;;;10.52;5.57;;;8.20;81.80;;;;;;5005109;28;20059;-79
2022/10/09 07:57:15;;;;;;;11.57;5.70;;;8.20;81.90;;;;;;4956144;28;20079;-79
2022/10/09 07:59:42;;;;;;;10.15;5.25;;;8.20;82.00;;;;;;4972232;28;20256;-79
2022/10/09 08:02:09;;;;;;;8.48;4.95;;;8.30;82.10;;;;;;4971841;28;20063;-79
2022/10/09 08:04:37;;;;;;;9.90;5.20;;;8.30;82.30;;;;;;4972728;28;20087;-79
2022/10/09 08:07:04;;;;;;;8.88;5.07;;;8.40;82.30;;;;;;4963695;28;20054;-79
2022/10/09 08:09:31;;;;;;;10.33;5.77;;;8.50;82.30;;;;;;4973190;28;20051;-79
2022/10/09 08:11:59;;;;;;;9.68;5.18;;;8.50;82.80;;;;;;5004781;28;20335;-79
2022/10/09 08:14:26;;;;;;;11.15;5.55;;;8.60;82.90;;;;;;4972291;28;20051;-79
2022/10/09 08:16:53;;;;;;;10.07;5.10;;;8.60;82.80;;;;;;4972162;28;20079;-79
2022/10/09 08:19:20;;;;;;;10.85;5.28;;;8.60;83.20;;;;;;4971931;28;20047;-79
2022/10/09 08:21:47;;;;;;;13.20;6.00;;;8.70;83.10;;;;;;4972440;28;20055;-79
2022/10/09 08:24:14;;;;;;;11.25;5.65;;;8.80;83.00;;;;;;4972091;28;20279;-79
2022/10/09 08:26:41;;;;;;;12.18;6.13;;;8.90;83.20;;;;;;4973351;28;20057;-79
2022/10/09 08:29:12;;;;;;;9.48;5.35;;;9.00;83.20;;;;;;4955534;28;20681;-78
2022/10/09 08:31:39;;;;;;;10.80;5.85;;;9.00;83.50;;;;;;4952801;28;20055;-78
2022/10/09 08:34:06;;;;;;;11.30;6.77;;;9.00;83.60;;;;;;5004654;28;20106;-78
2022/10/09 08:36:33;;;;;;;10.77;5.82;;;9.20;83.50;;;;;;4971908;28;20718;-78
2022/10/09 08:39:00;;;;;;;10.85;5.40;;;9.20;83.50;;;;;;4971729;28;20118;-78
2022/10/09 08:41:41;;;;;;;10.95;5.15;;;9.30;83.60;;;;;;4955554;28;20048;-78
2022/10/09 08:44:15;;;;;;;11.40;6.35;;;9.40;83.90;;;;;;4956161;28;20078;-79
2022/10/09 08:46:51;;;;;;;8.67;5.53;;;9.40;83.90;;;;;;4973400;28;20149;-79
2022/10/09 08:49:26;;;;;;;13.52;6.03;;;9.50;83.80;;;;;;4971231;28;20889;-79
2022/10/09 08:51:54;;;;;;;12.98;6.10;;;9.50;83.90;;;;;;4955643;28;20059;-79
2022/10/09 08:54:31;;;;;;;13.63;6.07;;;9.60;83.90;;;;;;4971181;28;20139;-79
2022/10/09 08:57:02;;;;;;;13.25;6.13;;;9.70;84.20;;;;;;4955547;28;20759;-79
2022/10/09 08:59:31;;;;;;;12.10;5.90;;;9.80;84.20;;;;;;4958028;28;20139;-78
2022/10/09 09:02:07;;;;;;;12.07;5.90;;;9.90;84.20;;;;;;4973440;28;20516;-78
2022/10/09 09:04:43;;;;;;;11.18;5.68;;;10.00;84.30;;;;;;4971228;28;20146;-78
2022/10/09 09:07:22;;;;;;;12.73;5.95;;;10.00;84.20;;;;;;4973299;28;20114;-79
2022/10/09 09:09:53;;;;;;;13.98;5.47;;;10.10;84.20;;;;;;5003443;28;20491;-79
2022/10/09 09:12:32;;;;;;;12.00;5.10;;;10.20;84.50;;;;;;4991710;28;20055;-79
2022/10/09 09:15:18;;;;;;;12.82;4.75;;;10.30;84.20;;;;;;4961919;28;20338;-79
2022/10/09 09:17:52;;;;;;;13.77;5.53;;;10.40;84.10;;;;;;5003981;28;20060;-79
2022/10/09 09:20:25;;;;;;;13.38;5.28;;;10.50;84.00;;;;;;5003299;28;20043;-80
2022/10/09 09:22:53;;;;;;;10.65;4.82;;;10.60;84.00;;;;;;5003842;28;20047;-79
2022/10/09 09:25:22;;;;;;;12.03;4.60;;;10.70;83.90;;;;;;5003660;28;20051;-79
2022/10/09 09:27:51;;;;;;;11.60;4.55;;;10.80;83.70;;;;;;4970348;28;20271;-80
2022/10/09 09:30:23;;;;;;;10.57;4.15;;;10.90;83.50;;;;;;4954988;28;20715;-79
2022/10/09 09:32:59;;;;;;;12.80;4.53;;;11.00;83.30;;;;;;4955097;28;20102;-80
2022/10/09 09:35:32;;;;;;;13.63;5.20;;;11.10;83.30;;;;;;4971454;28;20086;-79
2022/10/09 09:37:59;;;;;;;9.13;4.07;;;11.10;83.00;;;;;;4938782;28;20079;-79
2022/10/09 09:40:30;;;;;;;10.15;3.63;;;11.30;82.80;;;;;;4938583;28;20251;-80
2022/10/09 09:42:59;;;;;;;8.77;3.50;;;11.30;82.80;;;;;;4938834;28;20051;-79
2022/10/09 09:45:29;;;;;;;8.43;3.30;;;11.40;82.70;;;;;;4969076;28;20137;-79
2022/10/09 09:47:59;;;;;;;9.23;3.38;;;11.50;82.50;;;;;;4954743;28;20059;-79
2022/10/09 09:50:32;;;;;;;11.53;3.40;;;11.60;82.20;;;;;;4956641;28;20054;-79
2022/10/09 09:53:04;;;;;;;8.15;2.75;;;11.70;81.90;;;;;;5003590;28;20282;-79
2022/10/09 09:55:33;;;;;;;7.07;2.63;;;11.80;81.50;;;;;;5003102;28;20134;-79
2022/10/09 09:58:03;;;;;;;8.02;3.10;;;11.90;81.50;;;;;;4972454;28;20559;-79
2022/10/09 10:00:32;;;;;;;10.55;2.78;;;12.00;81.20;;;;;;4970129;28;20047;-79
2022/10/09 10:03:11;;;;;;;8.33;2.50;;;12.10;81.10;;;;;;4960667;28;20048;-80
2022/10/09 10:05:39;;;;;;;8.55;3.00;;;12.10;80.60;;;;;;4971943;28;20261;-79
2022/10/09 10:08:30;;;;;;;8.25;2.58;;;12.20;80.10;;;;;;4970603;28;20070;-79
2022/10/09 10:11:00;;;;;;;8.00;2.55;;;12.40;80.20;;;;;;4952417;28;20051;-79
2022/10/09 10:13:33;;;;;;;7.60;2.50;;;12.50;80.20;;;;;;4970690;28;20069;-79
2022/10/09 10:16:02;;;;;;;7.93;2.23;;;12.50;80.00;;;;;;4970169;28;20063;-79
2022/10/09 10:18:36;;;;;;;6.40;2.50;;;12.60;79.90;;;;;;5002709;28;20270;-79
2022/10/09 10:21:08;;;;;;;9.27;3.05;;;12.70;79.70;;;;;;4953041;28;20496;-79
2022/10/09 10:23:39;;;;;;;10.82;3.15;;;12.80;78.60;;;;;;4953962;28;20059;-79
2022/10/09 10:26:12;;;;;;;8.02;2.70;;;12.90;77.10;;;;;;4934623;28;20052;-79
2022/10/09 10:28:47;;;;;;;8.63;2.37;;;13.00;77.00;;;;;;4966996;28;20207;-80
2022/10/09 10:31:30;;;;;;;8.35;2.10;;;13.00;77.00;;;;;;4952133;28;20758;-80
2022/10/09 10:33:57;;;;;;;7.80;2.40;;;13.10;77.00;;;;;;4953954;28;20134;-79
2022/10/09 10:36:28;;;;;;;7.47;2.28;;;13.10;77.10;;;;;;4937093;28;20055;-79
2022/10/09 10:39:02;;;;;;;6.60;2.60;;;13.30;76.90;;;;;;4953821;28;20058;-79
2022/10/09 10:41:33;;;;;;;9.73;2.97;;;13.30;76.60;;;;;;5002396;28;20502;-79
2022/10/09 10:44:07;;;;;;;9.05;3.50;;;13.50;75.70;;;;;;4953768;28;20290;-80
2022/10/09 10:46:47;;;;;;;8.10;3.28;;;13.50;74.90;;;;;;5002455;28;20688;-80
2022/10/09 10:49:19;;;;;;;9.48;2.60;;;13.60;74.50;;;;;;5002032;28;20565;-79
2022/10/09 10:51:55;;;;;;;9.05;3.45;;;13.60;74.20;;;;;;4971146;28;20055;-79
2022/10/09 10:54:35;;;;;;;8.90;3.37;;;13.70;74.10;;;;;;4969718;28;20061;-79
2022/10/09 10:57:10;;;;;;;9.77;3.15;;;13.80;73.80;;;;;;4953377;28;20618;-79
2022/10/09 10:59:40;;;;;;;11.88;3.50;;;13.90;73.90;;;;;;4953288;28;20050;-80
2022/10/09 11:02:45;;;;;;;7.85;2.90;;;13.90;73.80;;;;;;4953580;28;20073;-80
2022/10/09 11:05:29;;;;;;;11.25;3.05;;;14.00;73.40;;;;;;4937717;28;20050;-79
2022/10/09 11:08:07;;;;;;;7.50;2.57;;;14.10;71.50;;;;;;4953587;28;20078;-79
2022/10/09 11:10:41;;;;;;;7.38;2.65;;;14.20;71.80;;;;;;4951952;28;20252;-79
2022/10/09 11:13:15;;;;;;;9.98;3.13;;;14.30;71.20;;;;;;4951957;28;20054;-79
2022/10/09 11:15:53;;;;;;;7.13;2.55;;;14.30;69.50;;;;;;4934234;28;20051;-79
2022/10/09 11:18:34;;;;;;;9.50;3.33;;;14.40;69.50;;;;;;4953329;28;20063;-79
2022/10/09 11:21:23;;;;;;;8.93;3.20;;;14.50;68.50;;;;;;4952955;28;20626;-79
2022/10/09 11:24:11;;;;;;;7.47;2.67;;;14.50;68.20;;;;;;4973444;28;20271;-79
2022/10/09 11:26:46;;;;;;;11.77;2.80;;;14.60;68.70;;;;;;4956514;28;20110;-79
2022/10/09 11:29:18;;;;;;;8.23;3.13;;;14.70;68.70;;;;;;4988955;28;20098;-79
2022/10/09 11:31:50;;;;;;;8.38;3.20;;;14.80;65.50;;;;;;4940609;28;20099;-78
2022/10/09 11:34:22;;;;;;;8.10;2.50;;;14.90;65.80;;;;;;4989344;28;20134;-80
2022/10/09 11:36:49;;;;;;;8.48;2.50;;;14.90;66.80;;;;;;4972491;28;20311;-80
2022/10/09 11:39:21;;;;;;;8.43;2.95;;;14.90;67.20;;;;;;4988847;28;20052;-79
2022/10/09 11:41:50;;;;;;;9.38;3.17;;;15.00;66.50;;;;;;4972842;28;20142;-79
2022/10/09 11:44:32;;;;;;;8.25;2.50;;;15.00;66.00;;;;;;4968672;28;20051;-80
2022/10/09 11:47:08;;;;;;;8.03;2.80;;;15.20;65.20;;;;;;4989051;28;20079;-79
2022/10/09 11:49:49;;;;;;;10.40;2.95;;;15.20;65.70;;;;;;5004991;28;20286;-79
2022/10/09 11:52:24;;;;;;;8.60;3.08;;;15.30;65.10;;;;;;5004865;28;20051;-80
2022/10/09 11:54:50;;;;;;;6.80;3.30;;;15.40;64.80;;;;;;5005192;28;20055;-79
2022/10/09 11:57:27;;;;;;;7.57;3.10;;;15.40;64.30;;;;;;4972011;28;20055;-79
2022/10/09 12:00:05;;;;;;;8.87;3.60;;;15.50;64.80;;;;;;4988713;28;20051;-79
2022/10/09 12:02:32;;;;;;;8.15;3.55;;;15.60;64.60;;;;;;4942933;28;20358;-79
2022/10/09 12:05:00;;;;;;;8.10;3.33;;;15.60;64.10;;;;;;4974242;28;20059;-79
2022/10/09 12:07:33;;;;;;;7.88;2.90;;;15.70;63.70;;;;;;4956543;28;20077;-80
2022/10/09 12:10:05;;;;;;;7.93;2.90;;;15.80;63.80;;;;;;4972177;28;20064;-80
2022/10/09 12:12:33;;;;;;;11.00;3.47;;;15.80;62.90;;;;;;4973892;28;20051;-79
2022/10/09 12:15:21;;;;;;;6.68;2.80;;;15.90;62.20;;;;;;4972440;28;20271;-79
2022/10/09 12:17:49;;;;;;;8.90;3.22;;;16.00;61.90;;;;;;4972365;28;20135;-79
2022/10/09 12:20:20;;;;;;;9.13;3.13;;;16.00;60.20;;;;;;4956076;28;20427;-80
2022/10/09 12:22:51;;;;;;;6.68;2.80;;;16.00;60.00;;;;;;4969150;28;20063;-79
2022/10/09 12:25:25;;;;;;;10.13;3.67;;;16.10;61.00;;;;;;4972176;28;20090;-79
2022/10/09 12:27:54;;;;;;;7.13;3.20;;;16.10;61.80;;;;;;4971782;28;20294;-79
2022/10/09 12:30:23;;;;;;;13.57;3.38;;;16.10;60.30;;;;;;4971585;28;20066;-79
2022/10/09 12:32:55;;;;;;;9.90;3.40;;;16.20;60.90;;;;;;4971885;28;20118;-78
2022/10/09 12:35:27;;;;;;;10.77;3.30;;;16.30;60.70;;;;;;4971248;28;20078;-79
2022/10/09 12:37:54;;;;;;;9.23;3.40;;;16.40;59.80;;;;;;4955554;28;20053;-79
2022/10/09 12:40:24;;;;;;;10.40;2.85;;;16.40;59.60;;;;;;4957397;28;20267;-79
2022/10/09 12:42:52;;;;;;;8.02;2.80;;;16.50;59.10;;;;;;4971845;28;20051;-79
2022/10/09 12:45:23;;;;;;;8.75;2.90;;;16.50;58.80;;;;;;4971306;28;20051;-79
2022/10/09 12:47:51;;;;;;;7.60;3.05;;;16.50;58.90;;;;;;4973154;28;20047;-79
2022/10/09 12:50:27;;;;;;;8.17;2.87;;;16.60;58.90;;;;;;5004046;28;20122;-79
2022/10/09 12:52:57;;;;;;;7.47;2.55;;;16.60;59.00;;;;;;4996053;28;21014;-79
2022/10/09 12:55:27;;;;;;;9.25;2.55;;;16.70;59.70;;;;;;4955587;28;20055;-79
2022/10/09 12:57:56;;;;;;;8.25;2.45;;;16.80;59.30;;;;;;4939777;28;20055;-79
2022/10/09 13:00:23;;;;;;;10.05;2.72;;;16.80;58.30;;;;;;4955344;28;20055;-79
2022/10/09 13:02:50;;;;;;;11.43;3.20;;;16.90;58.20;;;;;;4939333;28;20051;-76
2022/10/09 13:05:17;;;;;;;8.00;2.70;;;17.00;58.20;;;;;;4971764;28;20750;-78